Saint-Eustache, Canada
Current Conditions -  °F | °C
As of 12:00 PM on Saturday 25 Oct 2014 (Local Time) from CYMX Reporting Station
Overcast Overcast  
Wind Chill: 44°   Ceiling: 4000
Heat Index: 48°   Visibility: 25mi
Dew Point: 39°   Wind: 10mph
Humidity: 71%   Direction: 220°SW
Pressure: 29.64"   Gusts: NA
Location:  45.57°N, 73.9°W
Report Text: CYMX 251600Z 22009KT 200V280 25SM BKN040 OVC150 09/04 A2964 RMK SC6AC2 PRESFR SLP039
Loading
Personal Weather Stations






























Interactive Weather Map New forecast layout! Learn more

10-Day Weather Forecast

Advertisements
Track Severe Weather on mobile